createdAt,value
2023-05-18T00:00:49.381Z,0.75
2023-05-18T00:03:21.065Z,0.70
2023-05-18T00:05:49.433Z,1.85
2023-05-18T00:08:16.629Z,1.27
2023-05-18T00:10:44.171Z,1.15
2023-05-18T00:13:11.490Z,0.73
2023-05-18T00:15:39.149Z,0.88
2023-05-18T00:18:07.041Z,0.93
2023-05-18T00:20:34.865Z,1.05
2023-05-18T00:23:02.605Z,0.98
2023-05-18T00:25:30.331Z,1.08
2023-05-18T00:27:57.750Z,0.93
2023-05-18T00:30:31.013Z,1.70
2023-05-18T00:32:58.333Z,0.73
2023-05-18T00:35:26.151Z,0.60
2023-05-18T00:37:53.590Z,0.93
2023-05-18T00:40:22.522Z,1.20
2023-05-18T00:42:51.803Z,0.80
2023-05-18T00:45:19.502Z,0.60
2023-05-18T00:47:47.460Z,0.80
2023-05-18T00:50:15.330Z,0.77
2023-05-18T00:52:43.925Z,0.68
2023-05-18T00:55:12.685Z,0.90
2023-05-18T00:57:44.635Z,0.60
2023-05-18T01:00:14.072Z,0.90
2023-05-18T01:02:45.545Z,1.00
2023-05-18T01:07:44.690Z,0.50
2023-05-18T01:10:15.366Z,1.27
2023-05-18T01:12:53.678Z,0.77
2023-05-18T01:15:54.524Z,0.75
2023-05-18T01:18:31.828Z,0.60
2023-05-18T01:21:11.269Z,0.60
2023-05-18T01:23:56.799Z,0.65
2023-05-18T01:26:30.263Z,0.50
2023-05-18T01:29:01.549Z,0.63
2023-05-18T01:31:29.490Z,0.50
2023-05-18T01:33:56.892Z,0.80
2023-05-18T01:36:24.469Z,0.60
2023-05-18T01:38:55.272Z,0.75
2023-05-18T01:41:25.098Z,0.63
2023-05-18T01:44:12.543Z,0.93
2023-05-18T01:47:01.825Z,0.50
2023-05-18T01:49:38.191Z,0.50
2023-05-18T01:52:21.369Z,0.50
2023-05-18T01:54:52.430Z,0.73
2023-05-18T01:57:23.918Z,0.60
2023-05-18T01:59:52.164Z,0.60
2023-05-18T02:02:19.871Z,0.35
2023-05-18T02:04:47.458Z,2.00
2023-05-18T02:07:15.001Z,0.95
2023-05-18T02:09:44.385Z,0.50
2023-05-18T02:12:12.214Z,0.80
2023-05-18T02:14:39.527Z,0.88
2023-05-18T02:17:07.306Z,0.60
2023-05-18T02:19:38.448Z,0.50
2023-05-18T02:22:07.160Z,0.57
2023-05-18T02:24:35.030Z,0.57
2023-05-18T02:27:05.627Z,0.60
2023-05-18T02:29:32.909Z,0.50
2023-05-18T02:32:00.614Z,0.50
2023-05-18T02:34:32.114Z,1.67
2023-05-18T02:37:03.761Z,2.47
2023-05-18T02:39:31.320Z,0.50
2023-05-18T02:41:58.891Z,0.60
2023-05-18T02:44:26.228Z,0.90
2023-05-18T02:46:53.804Z,0.60
2023-05-18T02:49:21.146Z,0.85
2023-05-18T02:51:48.776Z,0.52
2023-05-18T02:54:16.089Z,0.73
2023-05-18T02:56:44.562Z,0.90
2023-05-18T02:59:28.183Z,0.80
2023-05-18T03:01:55.981Z,0.82
2023-05-18T03:04:26.284Z,0.88
2023-05-18T03:06:57.434Z,0.73
2023-05-18T03:09:25.794Z,0.80
2023-05-18T03:11:55.009Z,0.85
2023-05-18T03:14:22.311Z,0.60
2023-05-18T03:16:54.397Z,0.90
2023-05-18T03:19:24.073Z,0.65
2023-05-18T03:21:51.953Z,0.50
2023-05-18T03:24:20.449Z,1.00
2023-05-18T03:26:49.992Z,0.90
2023-05-18T03:29:17.421Z,1.60
2023-05-18T03:31:45.314Z,1.10
2023-05-18T03:34:13.691Z,0.63
2023-05-18T03:36:42.585Z,1.13
2023-05-18T03:39:10.618Z,0.68
2023-05-18T03:41:38.639Z,0.75
2023-05-18T03:44:06.208Z,0.60
2023-05-18T03:46:34.068Z,0.60
2023-05-18T03:49:03.391Z,0.90
2023-05-18T03:51:37.037Z,0.90
2023-05-18T03:54:04.794Z,0.70
2023-05-18T03:56:32.513Z,0.70
2023-05-18T03:59:00.241Z,0.80
2023-05-18T04:01:30.404Z,1.80
2023-05-18T04:03:58.254Z,0.70
2023-05-18T04:06:26.911Z,1.05
2023-05-18T04:08:54.992Z,0.60
2023-05-18T04:11:22.722Z,0.60
2023-05-18T04:13:50.953Z,1.00
2023-05-18T04:16:19.703Z,0.75
2023-05-18T04:18:47.196Z,0.93
2023-05-18T04:21:16.176Z,0.75
2023-05-18T04:23:45.923Z,0.35
2023-05-18T04:26:20.014Z,0.60
2023-05-18T04:28:47.536Z,0.95
2023-05-18T04:31:15.103Z,0.70
2023-05-18T04:33:42.564Z,0.80
2023-05-18T04:36:10.378Z,0.50
2023-05-18T04:38:38.480Z,1.15
2023-05-18T04:41:07.859Z,0.60
2023-05-18T04:43:36.698Z,0.32
2023-05-18T04:46:04.456Z,0.80
2023-05-18T04:48:33.570Z,0.40
2023-05-18T04:51:04.945Z,0.40
2023-05-18T04:53:33.699Z,0.70
2023-05-18T04:56:02.052Z,0.65
2023-05-18T04:58:30.683Z,0.40
2023-05-18T05:00:58.580Z,0.32
2023-05-18T05:03:26.220Z,0.43
2023-05-18T05:05:53.930Z,0.43
2023-05-18T05:08:21.270Z,0.60
2023-05-18T05:10:48.768Z,0.47
2023-05-18T05:13:16.064Z,0.30
2023-05-18T05:15:43.617Z,0.35
2023-05-18T05:18:10.938Z,0.40
2023-05-18T05:20:38.634Z,0.30
2023-05-18T05:23:06.028Z,0.47
2023-05-18T05:25:33.764Z,0.20
2023-05-18T05:28:01.631Z,0.38
2023-05-18T05:30:30.005Z,0.40
2023-05-18T05:32:57.666Z,0.52
2023-05-18T05:35:26.046Z,0.50
2023-05-18T05:37:53.498Z,0.30
2023-05-18T05:40:21.822Z,0.40
2023-05-18T05:42:50.494Z,0.35
2023-05-18T05:45:18.323Z,0.40
2023-05-18T05:47:51.139Z,0.40
2023-05-18T05:50:20.701Z,0.45
2023-05-18T05:52:49.992Z,0.47
2023-05-18T05:55:18.399Z,0.80
2023-05-18T05:57:46.023Z,0.55
2023-05-18T06:00:14.074Z,0.50
2023-05-18T06:02:58.979Z,0.85
2023-05-18T06:05:38.128Z,0.22
2023-05-18T06:08:09.366Z,0.30
2023-05-18T06:10:39.338Z,0.35
2023-05-18T06:13:07.523Z,0.30
2023-05-18T06:15:42.258Z,0.25
2023-05-18T06:18:11.493Z,0.20
2023-05-18T06:20:40.505Z,0.40
2023-05-18T06:23:07.818Z,0.30
2023-05-18T06:25:53.835Z,0.32
2023-05-18T06:31:22.676Z,0.30
2023-05-18T06:33:53.241Z,0.25
2023-05-18T06:36:21.113Z,0.20
2023-05-18T06:38:48.564Z,0.22
2023-05-18T06:41:16.208Z,0.40
2023-05-18T06:43:43.561Z,0.30
2023-05-18T06:46:23.588Z,0.45
2023-05-18T06:48:57.870Z,0.30
2023-05-18T06:51:25.764Z,0.68
2023-05-18T06:53:54.991Z,0.40
2023-05-18T06:56:23.627Z,0.40
2023-05-18T06:58:52.304Z,0.40
2023-05-18T07:01:19.887Z,0.20
2023-05-18T07:03:47.472Z,0.22
2023-05-18T07:06:15.149Z,0.55
2023-05-18T07:08:42.530Z,0.30
2023-05-18T07:11:10.112Z,0.20
2023-05-18T07:13:37.363Z,0.45
2023-05-18T07:16:05.255Z,0.50
2023-05-18T07:18:34.100Z,0.30
2023-05-18T07:21:01.663Z,0.30
2023-05-18T07:23:29.084Z,0.50
2023-05-18T07:25:57.797Z,0.22
2023-05-18T07:28:25.186Z,0.38
2023-05-18T07:30:52.765Z,0.20
2023-05-18T07:33:20.146Z,0.10
2023-05-18T07:35:47.747Z,0.20
2023-05-18T07:38:15.130Z,1.38
2023-05-18T07:40:42.670Z,0.30
2023-05-18T07:43:10.500Z,0.30
2023-05-18T07:45:38.096Z,0.15
2023-05-18T07:48:05.696Z,0.30
2023-05-18T07:50:34.804Z,0.30
2023-05-18T07:53:02.050Z,0.20
2023-05-18T07:55:29.920Z,0.20
2023-05-18T07:57:57.421Z,0.10
2023-05-18T08:00:25.128Z,0.77
2023-05-18T08:02:53.094Z,0.47
2023-05-18T08:05:22.569Z,0.20
2023-05-18T08:07:49.930Z,0.00
2023-05-18T08:10:17.619Z,0.32
2023-05-18T08:12:44.878Z,0.10
2023-05-18T08:15:12.479Z,0.10
2023-05-18T08:17:40.030Z,0.10
2023-05-18T08:20:08.910Z,0.25
2023-05-18T08:22:36.443Z,0.20
2023-05-18T08:25:04.315Z,0.32
2023-05-18T08:27:31.892Z,0.20
2023-05-18T08:29:59.454Z,0.15
2023-05-18T08:32:26.905Z,0.15
2023-05-18T08:34:54.468Z,0.22
2023-05-18T08:37:22.264Z,0.08
2023-05-18T08:39:49.791Z,0.50
2023-05-18T08:42:24.491Z,0.10
2023-05-18T08:45:36.191Z,0.00
2023-05-18T08:48:04.297Z,0.10
2023-05-18T08:50:33.176Z,0.15
2023-05-18T08:53:06.780Z,0.10
2023-05-18T08:55:37.035Z,0.25
2023-05-18T08:58:07.570Z,0.10
2023-05-18T09:00:36.172Z,0.10
2023-05-18T09:03:05.637Z,0.10
2023-05-18T09:05:33.697Z,0.32
2023-05-18T09:08:01.686Z,0.30
2023-05-18T09:10:29.755Z,0.25
2023-05-18T09:12:58.003Z,0.10
2023-05-18T09:15:26.310Z,0.20
2023-05-18T09:17:53.869Z,0.08
2023-05-18T09:20:22.182Z,0.20
2023-05-18T09:22:51.597Z,0.10
2023-05-18T09:25:19.453Z,0.10
2023-05-18T09:27:48.448Z,0.20
2023-05-18T09:30:16.196Z,0.03
2023-05-18T09:32:47.392Z,0.10
2023-05-18T09:37:43.551Z,0.20
2023-05-18T09:40:11.399Z,0.10
2023-05-18T09:42:43.963Z,0.10
2023-05-18T09:45:26.862Z,0.30
2023-05-18T09:47:54.634Z,0.10
2023-05-18T09:50:23.588Z,0.10
2023-05-18T09:52:51.227Z,0.10
2023-05-18T09:55:20.303Z,0.20
2023-05-18T09:57:50.143Z,0.10
2023-05-18T10:00:20.777Z,0.13
2023-05-18T10:02:52.545Z,0.20
2023-05-18T10:07:48.763Z,0.10
2023-05-18T10:10:21.203Z,0.63
2023-05-18T10:12:51.038Z,0.73
2023-05-18T10:15:21.199Z,0.40
2023-05-18T10:17:51.224Z,0.25
2023-05-18T10:20:20.514Z,0.30
2023-05-18T10:22:49.161Z,0.10
2023-05-18T10:25:20.125Z,0.15
2023-05-18T10:27:49.976Z,0.20
2023-05-18T10:30:20.358Z,0.10
2023-05-18T10:32:48.526Z,0.28
2023-05-18T10:35:17.106Z,0.25
2023-05-18T10:37:50.301Z,0.13
2023-05-18T10:40:19.886Z,0.20
2023-05-18T10:42:49.112Z,0.22
2023-05-18T10:45:16.848Z,0.20
2023-05-18T10:47:44.716Z,0.20
2023-05-18T10:50:14.157Z,0.20
2023-05-18T10:52:41.817Z,0.20
2023-05-18T10:55:09.644Z,0.08
2023-05-18T10:57:43.652Z,0.10
2023-05-18T11:00:11.889Z,0.28
2023-05-18T11:02:42.714Z,0.10
2023-05-18T11:07:39.045Z,0.20
2023-05-18T11:10:11.605Z,0.20
2023-05-18T11:12:40.631Z,0.88
2023-05-18T11:15:08.670Z,0.17
2023-05-18T11:17:36.105Z,0.47
2023-05-18T11:20:09.652Z,0.20
2023-05-18T11:22:51.481Z,0.13
2023-05-18T11:25:28.356Z,0.20
2023-05-18T11:28:02.214Z,0.10
2023-05-18T11:30:33.916Z,0.40
2023-05-18T11:33:32.960Z,0.20
2023-05-18T11:36:11.654Z,0.10
2023-05-18T11:39:02.410Z,0.20
2023-05-18T11:41:35.860Z,0.20
2023-05-18T11:44:15.257Z,0.10
2023-05-18T11:47:10.979Z,0.15
2023-05-18T11:49:46.701Z,0.20
2023-05-18T11:52:22.386Z,0.77
2023-05-18T11:54:52.425Z,0.10
2023-05-18T11:57:24.625Z,0.30
2023-05-18T11:59:56.860Z,1.60
2023-05-18T12:02:26.959Z,0.10
2023-05-18T12:04:57.141Z,0.15
2023-05-18T12:07:28.434Z,0.20
2023-05-18T12:10:00.583Z,0.20
2023-05-18T12:12:28.471Z,0.10
2023-05-18T12:15:01.389Z,0.10
2023-05-18T12:17:41.949Z,0.20
2023-05-18T12:20:11.992Z,0.47
2023-05-18T12:22:41.407Z,0.10
2023-05-18T12:25:09.641Z,0.17
2023-05-18T12:27:41.474Z,0.30
2023-05-18T12:30:16.368Z,0.32
2023-05-18T12:32:57.693Z,0.20
2023-05-18T12:35:30.284Z,0.20
2023-05-18T12:38:02.962Z,0.20
2023-05-18T12:40:44.766Z,0.10
2023-05-18T12:43:13.246Z,0.30
2023-05-18T12:45:41.234Z,0.30
2023-05-18T12:48:11.179Z,0.30
2023-05-18T12:50:50.945Z,0.60
2023-05-18T12:53:18.958Z,0.45
2023-05-18T12:55:46.198Z,0.22
2023-05-18T12:58:17.694Z,0.40
2023-05-18T13:00:47.196Z,0.20
2023-05-18T13:03:17.341Z,0.20
2023-05-18T13:05:46.387Z,0.35
2023-05-18T13:08:19.995Z,0.25
2023-05-18T13:10:50.999Z,0.25
2023-05-18T13:13:23.033Z,0.28
2023-05-18T13:15:51.354Z,0.10
2023-05-18T13:18:18.867Z,0.22
2023-05-18T13:20:51.842Z,0.30
2023-05-18T13:23:21.828Z,0.30
2023-05-18T13:25:49.811Z,0.30
2023-05-18T13:28:19.279Z,0.30
2023-05-18T13:30:48.748Z,0.30
2023-05-18T13:33:18.138Z,0.70
2023-05-18T13:35:45.881Z,0.73
2023-05-18T13:38:14.510Z,0.35
2023-05-18T13:40:42.954Z,0.82
2023-05-18T13:43:12.777Z,0.20
2023-05-18T13:45:42.070Z,0.63
2023-05-18T13:48:10.835Z,0.40
2023-05-18T13:50:39.280Z,0.60
2023-05-18T13:53:07.169Z,0.68
2023-05-18T13:55:35.195Z,0.43
2023-05-18T13:58:02.822Z,0.57
2023-05-18T14:00:33.569Z,0.30
2023-05-18T14:03:01.692Z,0.22
2023-05-18T14:05:29.182Z,0.90
2023-05-18T14:07:56.951Z,0.52
2023-05-18T14:10:24.168Z,0.38
2023-05-18T14:12:51.730Z,0.25
2023-05-18T14:15:18.886Z,0.20
2023-05-18T14:17:46.375Z,0.50
2023-05-18T14:20:13.757Z,0.35
2023-05-18T14:22:41.545Z,0.15
2023-05-18T14:25:09.089Z,0.10
2023-05-18T14:27:36.798Z,0.32
2023-05-18T14:30:06.264Z,0.20
2023-05-18T14:32:33.960Z,0.10
2023-05-18T14:35:01.154Z,0.35
2023-05-18T14:37:28.820Z,0.20
2023-05-18T14:39:56.209Z,0.10
2023-05-18T14:42:23.736Z,0.10
2023-05-18T14:44:51.095Z,0.30
2023-05-18T14:47:18.534Z,0.38
2023-05-18T14:49:46.473Z,0.25
2023-05-18T14:52:14.444Z,0.10
2023-05-18T14:54:42.424Z,0.10
2023-05-18T14:57:10.006Z,0.20
2023-05-18T14:59:37.212Z,0.22
2023-05-18T15:02:05.026Z,0.20
2023-05-18T15:04:32.398Z,0.20
2023-05-18T15:06:59.942Z,0.28
2023-05-18T15:09:27.208Z,0.30
2023-05-18T15:11:54.749Z,0.55
2023-05-18T15:14:22.029Z,0.20
2023-05-18T15:16:49.552Z,0.30
2023-05-18T15:19:16.763Z,0.40
2023-05-18T15:21:45.049Z,0.10
2023-05-18T15:24:12.339Z,0.10
2023-05-18T15:26:40.077Z,0.15
2023-05-18T15:29:07.224Z,0.10
2023-05-18T15:31:36.979Z,0.22
2023-05-18T15:34:04.238Z,0.10
2023-05-18T15:36:32.401Z,0.10
2023-05-18T15:39:00.086Z,0.10
2023-05-18T15:41:33.056Z,0.40
2023-05-18T15:44:01.920Z,0.17
2023-05-18T15:46:32.112Z,0.10
2023-05-18T15:48:59.421Z,0.10
2023-05-18T15:51:26.930Z,0.15
2023-05-18T15:53:54.160Z,0.20
2023-05-18T15:56:22.081Z,0.10
2023-05-18T15:58:49.391Z,0.30
2023-05-18T16:01:16.890Z,0.30
2023-05-18T16:03:44.322Z,0.20
2023-05-18T16:06:12.152Z,0.10
2023-05-18T16:08:39.341Z,0.13
2023-05-18T16:11:07.215Z,0.10
2023-05-18T16:13:34.458Z,0.32
2023-05-18T16:16:03.698Z,0.20
2023-05-18T16:18:31.022Z,0.10
2023-05-18T16:20:58.556Z,0.38
2023-05-18T16:23:25.913Z,0.30
2023-05-18T16:25:53.457Z,0.15
2023-05-18T16:28:20.664Z,0.20
2023-05-18T16:30:48.230Z,0.10
2023-05-18T16:33:16.928Z,0.10
2023-05-18T16:35:44.400Z,0.30
2023-05-18T16:38:13.313Z,0.15
2023-05-18T16:40:40.821Z,0.10
2023-05-18T16:43:08.033Z,0.17
2023-05-18T16:45:35.598Z,0.20
2023-05-18T16:48:03.887Z,0.10
2023-05-18T16:50:31.827Z,0.40
2023-05-18T16:52:59.308Z,0.10
2023-05-18T16:55:27.158Z,0.43
2023-05-18T16:57:54.438Z,0.15
2023-05-18T17:00:22.196Z,0.15
2023-05-18T17:02:49.545Z,0.17
2023-05-18T17:05:21.514Z,0.10
2023-05-18T17:07:52.499Z,0.25
2023-05-18T17:10:20.035Z,0.57
2023-05-18T17:12:47.300Z,0.10
2023-05-18T17:15:15.050Z,0.13
2023-05-18T17:17:43.946Z,0.32
2023-05-18T17:20:11.915Z,0.10
2023-05-18T17:22:39.256Z,0.10
2023-05-18T17:25:08.512Z,0.20
2023-05-18T17:27:35.803Z,0.20
2023-05-18T17:30:03.487Z,0.45
2023-05-18T17:32:30.869Z,0.10
2023-05-18T17:34:58.501Z,0.25
2023-05-18T17:37:26.031Z,0.38
2023-05-18T17:39:53.840Z,0.20
2023-05-18T17:42:21.123Z,0.20
2023-05-18T17:44:48.644Z,0.40
2023-05-18T17:47:17.512Z,0.25
2023-05-18T17:49:45.082Z,0.30
2023-05-18T17:52:12.589Z,0.25
2023-05-18T17:54:40.139Z,0.20
2023-05-18T17:57:07.372Z,0.20
2023-05-18T17:59:37.125Z,0.10
2023-05-18T18:02:05.362Z,0.15
2023-05-18T18:04:32.967Z,0.22
2023-05-18T18:07:01.843Z,0.13
2023-05-18T18:09:29.466Z,0.10
2023-05-18T18:11:58.090Z,0.30
2023-05-18T18:14:25.799Z,0.10
2023-05-18T18:16:53.212Z,0.10
2023-05-18T18:19:20.949Z,0.38
2023-05-18T18:21:48.300Z,0.20
2023-05-18T18:24:15.996Z,0.43
2023-05-18T18:26:43.279Z,0.20
2023-05-18T18:29:10.906Z,0.20
2023-05-18T18:31:38.280Z,0.20
2023-05-18T18:34:05.954Z,0.20
2023-05-18T18:36:33.722Z,0.20
2023-05-18T18:39:01.388Z,0.40
2023-05-18T18:41:28.949Z,0.50
2023-05-18T18:43:57.324Z,0.38
2023-05-18T18:46:24.697Z,0.20
2023-05-18T18:48:52.317Z,0.30
2023-05-18T18:51:19.644Z,0.40
2023-05-18T18:53:47.229Z,0.45
2023-05-18T18:56:14.560Z,0.45
2023-05-18T18:58:42.147Z,0.32
2023-05-18T19:01:09.497Z,0.20
2023-05-18T19:03:37.171Z,0.68
2023-05-18T19:06:04.654Z,0.73
2023-05-18T19:08:32.298Z,0.52
2023-05-18T19:10:59.979Z,0.47
2023-05-18T19:13:27.591Z,0.70
2023-05-18T19:15:54.926Z,0.60
2023-05-18T19:18:22.590Z,1.10
2023-05-18T19:20:50.050Z,0.57
2023-05-18T19:23:17.689Z,0.50
2023-05-18T19:25:45.182Z,0.55
2023-05-18T19:28:12.737Z,0.50
2023-05-18T19:30:40.084Z,0.52
2023-05-18T19:33:07.744Z,0.60
2023-05-18T19:35:35.240Z,0.40
2023-05-18T19:38:02.790Z,0.60
2023-05-18T19:40:30.162Z,0.55
2023-05-18T19:42:59.808Z,0.55
2023-05-18T19:45:27.476Z,0.90
2023-05-18T19:47:55.618Z,0.73
2023-05-18T19:50:22.946Z,0.68
2023-05-18T19:52:50.723Z,0.40
2023-05-18T19:55:18.346Z,0.40
2023-05-18T19:57:45.931Z,0.50
2023-05-18T20:00:13.892Z,0.40
2023-05-18T20:02:41.520Z,0.98
2023-05-18T20:05:12.735Z,0.65
2023-05-18T20:07:41.133Z,0.88
2023-05-18T20:10:08.467Z,0.82
2023-05-18T20:12:36.080Z,0.70
2023-05-18T20:15:04.249Z,1.00
2023-05-18T20:17:31.965Z,1.10
2023-05-18T20:20:00.156Z,1.38
2023-05-18T20:22:28.130Z,2.40
2023-05-18T20:24:55.570Z,1.98
2023-05-18T20:27:23.168Z,2.17
2023-05-18T20:29:50.407Z,2.50
2023-05-18T20:32:17.952Z,2.45
2023-05-18T20:34:45.445Z,2.10
2023-05-18T20:37:14.235Z,2.08
2023-05-18T20:39:42.790Z,2.80
2023-05-18T20:42:12.922Z,3.08
2023-05-18T20:44:40.292Z,3.97
2023-05-18T20:47:08.670Z,4.68
2023-05-18T20:49:35.968Z,4.60
2023-05-18T20:52:03.635Z,5.82
2023-05-18T20:54:31.047Z,5.30
2023-05-18T20:56:58.680Z,4.75
2023-05-18T20:59:26.404Z,5.63
2023-05-18T21:01:54.243Z,6.85
2023-05-18T21:04:21.949Z,5.82
2023-05-18T21:06:49.659Z,7.45
2023-05-18T21:09:17.778Z,3.42
2023-05-18T21:11:45.383Z,3.15
2023-05-18T21:14:12.664Z,4.53
2023-05-18T21:16:40.603Z,5.55
2023-05-18T21:19:08.106Z,4.70
2023-05-18T21:21:36.023Z,3.00
2023-05-18T21:24:03.473Z,2.80
2023-05-18T21:26:31.109Z,1.90
2023-05-18T21:28:58.425Z,3.22
2023-05-18T21:31:26.364Z,3.40
2023-05-18T21:33:53.710Z,2.80
2023-05-18T21:36:34.454Z,2.67
2023-05-18T21:39:05.892Z,2.03
2023-05-18T21:41:35.393Z,0.90
2023-05-18T21:44:03.374Z,1.20
2023-05-18T21:46:31.262Z,1.23
2023-05-18T21:48:58.710Z,1.60
2023-05-18T21:51:26.393Z,1.20
2023-05-18T21:53:53.623Z,1.60
2023-05-18T21:56:21.577Z,0.90
2023-05-18T21:58:48.805Z,1.33
2023-05-18T22:01:19.786Z,2.47
2023-05-18T22:03:48.277Z,3.33
2023-05-18T22:06:16.636Z,3.90
2023-05-18T22:08:44.483Z,3.13
2023-05-18T22:11:12.872Z,3.20
2023-05-18T22:13:40.699Z,3.63
2023-05-18T22:16:08.401Z,3.15
2023-05-18T22:18:35.673Z,3.30
2023-05-18T22:21:03.218Z,3.05
2023-05-18T22:23:30.567Z,2.00
2023-05-18T22:25:58.211Z,1.80
2023-05-18T22:28:25.476Z,2.38
2023-05-18T22:30:53.159Z,2.35
2023-05-18T22:33:21.395Z,1.40
2023-05-18T22:35:49.610Z,1.77
2023-05-18T22:38:17.944Z,2.00
2023-05-18T22:40:45.684Z,2.00
2023-05-18T22:43:13.102Z,3.00
2023-05-18T22:45:40.967Z,2.10
2023-05-18T22:48:08.359Z,1.80
2023-05-18T22:50:36.025Z,1.77
2023-05-18T22:53:04.888Z,2.70
2023-05-18T22:55:32.888Z,1.00
2023-05-18T22:58:00.133Z,1.60
2023-05-18T23:00:27.661Z,1.80
2023-05-18T23:02:55.143Z,1.45
2023-05-18T23:05:22.920Z,1.30
2023-05-18T23:07:50.258Z,2.20
2023-05-18T23:10:18.616Z,1.17
2023-05-18T23:12:46.340Z,2.03
2023-05-18T23:15:14.073Z,1.75
2023-05-18T23:17:46.297Z,1.40
2023-05-18T23:20:13.848Z,1.20
2023-05-18T23:22:41.146Z,0.80
2023-05-18T23:25:10.057Z,0.70
2023-05-18T23:27:37.609Z,0.90
2023-05-18T23:30:05.761Z,1.90
2023-05-18T23:32:33.533Z,1.15
2023-05-18T23:35:01.487Z,1.80
2023-05-18T23:37:31.577Z,1.08
2023-05-18T23:40:02.827Z,1.42
2023-05-18T23:42:31.571Z,1.38
2023-05-18T23:44:59.542Z,1.10
2023-05-18T23:47:27.121Z,1.77
2023-05-18T23:49:55.049Z,1.40
2023-05-18T23:52:25.148Z,0.90
2023-05-18T23:54:55.732Z,1.30
2023-05-18T23:57:24.079Z,1.23
2023-05-18T23:59:51.885Z,1.88
